Airfield :
LOGIN :

Register | Disclaimer

   EN    FR    IT 

 










Legend :    VFR   Marginal VFR   IFR   Intensive IFR   Very Intensive IFR
Visi :
Ceiling :
>= 8 km
>= 3000ft
5 to 8 km
1000 to 3000 ft
1500m to 5 km
500 to 1000 ft
800 to 1500m
200 to 500 ft
< 800m
< 200 ft
Symbols :   Thunderstorms  Fog  Heavy snow  Heavy precipitations  Wind > 20 kt
SIGMETs :     Misc.  Thunderstorms  Icing  Turbulence  Mountain Waves  Volcanic Ashes







- Airport Elevation : 358 ft
- Download approach charts


EGTC - Cranfield

CURRENT METAR :
  • 190820Z 23009KT 200V270 9999 BKN020 19/15 Q1022

EXPIRED METARs :
  • 190750Z 22009KT 9999 SCT026 20/16 Q1022
  • 190720Z 24008KT 9999 FEW015 SCT032 19/16 Q1022
  • 190650Z 22009KT 9999 FEW011 SCT032 18/15 Q1022
  • 190620Z 23010KT 9999 SCT016 17/15 Q1022

TAF TAF EGTC
Valid from the 19 at 07:00 until the 19 at 15:00 UTC


190700Z 1907/1915 24009KT 9999 SCT030
PROB30
TEMPO 1907/1909 BKN011
PROB30
TEMPO 1913/1915 BKN014
No reported NOTAMs for that airfield.
1 SIGMET reported for the London FIR (EGTT) :
 
Severe mountain waves
EGTT SIGMET 01 VALID 190605/191000 EGRR
EGTT LONDON FIR SEV MTW FCST WI N5500 E00200 - N5330 E00200 - N5330 W00300 - N5500 W00500 - N5500 E00200 FL040/240 STNR NC=



MET'MAP, your aeronautical weather chart ! - Copyright ORBIFLY December 2007 - Disclaimer

ORBIFLY MET'MAP TEAM :

Programming & Development : Alexandra Zaïnal
Concept & Development : Baudouin d'Aumeries
Co-Development & Prog : Marc-Olivier Méhu
Technical & hardware support : Manuel Goepfert

Contact : metmap@orbifly.com




SOURCES & CREDITS :

   NOAA